sensor_id;sensor_type;location;lat;lon;timestamp;P1;durP1;ratioP1;P2;durP2;ratioP2
19189;SDS011;9727;50.200;19.038;2023-07-13T00:02:19;9.93;;;5.38;;
19189;SDS011;9727;50.200;19.038;2023-07-13T00:04:46;6.90;;;4.68;;
19189;SDS011;9727;50.200;19.038;2023-07-13T00:07:16;7.55;;;4.80;;
19189;SDS011;9727;50.200;19.038;2023-07-13T00:09:45;8.80;;;5.75;;
19189;SDS011;9727;50.200;19.038;2023-07-13T00:12:23;9.77;;;6.03;;
19189;SDS011;9727;50.200;19.038;2023-07-13T00:14:50;8.15;;;5.90;;
19189;SDS011;9727;50.200;19.038;2023-07-13T00:17:16;9.05;;;5.93;;
19189;SDS011;9727;50.200;19.038;2023-07-13T00:19:43;8.82;;;6.00;;
19189;SDS011;9727;50.200;19.038;2023-07-13T00:22:11;8.73;;;5.63;;
19189;SDS011;9727;50.200;19.038;2023-07-13T00:24:37;8.43;;;5.93;;
19189;SDS011;9727;50.200;19.038;2023-07-13T00:27:07;9.80;;;5.63;;
19189;SDS011;9727;50.200;19.038;2023-07-13T00:29:37;8.38;;;5.22;;
19189;SDS011;9727;50.200;19.038;2023-07-13T00:32:04;10.75;;;5.43;;
19189;SDS011;9727;50.200;19.038;2023-07-13T00:34:31;8.98;;;5.65;;
19189;SDS011;9727;50.200;19.038;2023-07-13T00:36:58;6.65;;;5.50;;
19189;SDS011;9727;50.200;19.038;2023-07-13T00:39:24;7.15;;;5.57;;
19189;SDS011;9727;50.200;19.038;2023-07-13T00:41:51;6.70;;;5.20;;
19189;SDS011;9727;50.200;19.038;2023-07-13T00:44:18;8.85;;;5.38;;
19189;SDS011;9727;50.200;19.038;2023-07-13T00:46:47;8.07;;;5.47;;
19189;SDS011;9727;50.200;19.038;2023-07-13T00:49:20;7.53;;;5.47;;
19189;SDS011;9727;50.200;19.038;2023-07-13T00:51:48;8.63;;;5.55;;
19189;SDS011;9727;50.200;19.038;2023-07-13T00:54:19;11.15;;;5.63;;
19189;SDS011;9727;50.200;19.038;2023-07-13T00:56:56;6.72;;;5.22;;
19189;SDS011;9727;50.200;19.038;2023-07-13T00:59:24;7.07;;;4.75;;
19189;SDS011;9727;50.200;19.038;2023-07-13T01:01:53;6.05;;;4.68;;
19189;SDS011;9727;50.200;19.038;2023-07-13T01:04:20;8.02;;;4.57;;
19189;SDS011;9727;50.200;19.038;2023-07-13T01:06:47;6.43;;;4.20;;
19189;SDS011;9727;50.200;19.038;2023-07-13T01:09:17;7.53;;;4.22;;
19189;SDS011;9727;50.200;19.038;2023-07-13T01:11:44;6.30;;;4.65;;
19189;SDS011;9727;50.200;19.038;2023-07-13T01:14:11;7.93;;;4.10;;
19189;SDS011;9727;50.200;19.038;2023-07-13T01:16:37;7.57;;;4.32;;
19189;SDS011;9727;50.200;19.038;2023-07-13T01:19:07;5.82;;;4.60;;
19189;SDS011;9727;50.200;19.038;2023-07-13T01:21:51;7.97;;;4.82;;
19189;SDS011;9727;50.200;19.038;2023-07-13T01:24:18;6.55;;;5.00;;
19189;SDS011;9727;50.200;19.038;2023-07-13T01:26:44;8.15;;;4.60;;
19189;SDS011;9727;50.200;19.038;2023-07-13T01:29:11;8.77;;;5.22;;
19189;SDS011;9727;50.200;19.038;2023-07-13T01:31:37;8.82;;;5.57;;
19189;SDS011;9727;50.200;19.038;2023-07-13T01:34:04;14.27;;;5.43;;
19189;SDS011;9727;50.200;19.038;2023-07-13T01:36:31;6.65;;;5.53;;
19189;SDS011;9727;50.200;19.038;2023-07-13T01:39:03;8.95;;;6.15;;
19189;SDS011;9727;50.200;19.038;2023-07-13T01:41:29;9.43;;;5.65;;
19189;SDS011;9727;50.200;19.038;2023-07-13T01:43:56;9.65;;;5.47;;
19189;SDS011;9727;50.200;19.038;2023-07-13T01:46:22;8.43;;;5.50;;
19189;SDS011;9727;50.200;19.038;2023-07-13T01:48:49;9.88;;;5.60;;
19189;SDS011;9727;50.200;19.038;2023-07-13T01:51:22;9.00;;;6.25;;
19189;SDS011;9727;50.200;19.038;2023-07-13T01:53:48;11.90;;;6.18;;
19189;SDS011;9727;50.200;19.038;2023-07-13T01:56:21;8.05;;;5.68;;
19189;SDS011;9727;50.200;19.038;2023-07-13T01:58:48;8.50;;;5.55;;
19189;SDS011;9727;50.200;19.038;2023-07-13T02:01:17;10.35;;;5.95;;
19189;SDS011;9727;50.200;19.038;2023-07-13T02:03:43;10.80;;;5.75;;
19189;SDS011;9727;50.200;19.038;2023-07-13T02:06:11;9.70;;;6.00;;
19189;SDS011;9727;50.200;19.038;2023-07-13T02:08:47;7.80;;;5.32;;
19189;SDS011;9727;50.200;19.038;2023-07-13T02:11:16;9.07;;;5.32;;
19189;SDS011;9727;50.200;19.038;2023-07-13T02:13:45;8.85;;;5.30;;
19189;SDS011;9727;50.200;19.038;2023-07-13T02:16:11;9.77;;;5.28;;
19189;SDS011;9727;50.200;19.038;2023-07-13T02:18:38;9.30;;;5.25;;
19189;SDS011;9727;50.200;19.038;2023-07-13T02:21:05;9.05;;;5.72;;
19189;SDS011;9727;50.200;19.038;2023-07-13T02:23:31;13.40;;;5.80;;
19189;SDS011;9727;50.200;19.038;2023-07-13T02:26:01;8.82;;;5.57;;
19189;SDS011;9727;50.200;19.038;2023-07-13T02:28:28;12.10;;;7.15;;
19189;SDS011;9727;50.200;19.038;2023-07-13T02:31:03;13.40;;;8.20;;
19189;SDS011;9727;50.200;19.038;2023-07-13T02:33:30;12.48;;;8.27;;
19189;SDS011;9727;50.200;19.038;2023-07-13T02:35:57;15.60;;;9.05;;
19189;SDS011;9727;50.200;19.038;2023-07-13T02:38:24;15.73;;;8.10;;
19189;SDS011;9727;50.200;19.038;2023-07-13T02:40:51;17.45;;;7.20;;
19189;SDS011;9727;50.200;19.038;2023-07-13T02:43:17;14.00;;;6.80;;
19189;SDS011;9727;50.200;19.038;2023-07-13T02:45:44;10.27;;;6.38;;
19189;SDS011;9727;50.200;19.038;2023-07-13T02:48:13;13.77;;;6.55;;
19189;SDS011;9727;50.200;19.038;2023-07-13T02:50:43;13.10;;;6.00;;
19189;SDS011;9727;50.200;19.038;2023-07-13T02:53:10;10.48;;;6.43;;
19189;SDS011;9727;50.200;19.038;2023-07-13T02:55:37;11.55;;;6.90;;
19189;SDS011;9727;50.200;19.038;2023-07-13T02:58:05;10.52;;;6.15;;
19189;SDS011;9727;50.200;19.038;2023-07-13T03:00:32;11.32;;;6.13;;
19189;SDS011;9727;50.200;19.038;2023-07-13T03:02:59;11.57;;;5.90;;
19189;SDS011;9727;50.200;19.038;2023-07-13T03:05:27;10.93;;;6.03;;
19189;SDS011;9727;50.200;19.038;2023-07-13T03:07:54;11.63;;;6.68;;
19189;SDS011;9727;50.200;19.038;2023-07-13T03:10:23;11.23;;;6.78;;
19189;SDS011;9727;50.200;19.038;2023-07-13T03:12:50;14.35;;;7.90;;
19189;SDS011;9727;50.200;19.038;2023-07-13T03:15:17;14.13;;;6.90;;
19189;SDS011;9727;50.200;19.038;2023-07-13T03:17:43;13.73;;;7.55;;
19189;SDS011;9727;50.200;19.038;2023-07-13T03:20:11;16.30;;;8.35;;
19189;SDS011;9727;50.200;19.038;2023-07-13T03:22:39;19.10;;;8.05;;
19189;SDS011;9727;50.200;19.038;2023-07-13T03:25:07;16.90;;;8.23;;
19189;SDS011;9727;50.200;19.038;2023-07-13T03:27:34;13.82;;;8.23;;
19189;SDS011;9727;50.200;19.038;2023-07-13T03:30:00;14.63;;;8.40;;
19189;SDS011;9727;50.200;19.038;2023-07-13T03:32:27;17.60;;;8.18;;
19189;SDS011;9727;50.200;19.038;2023-07-13T03:34:54;18.88;;;8.23;;
19189;SDS011;9727;50.200;19.038;2023-07-13T03:37:21;14.80;;;8.25;;
19189;SDS011;9727;50.200;19.038;2023-07-13T03:39:50;15.73;;;8.85;;
19189;SDS011;9727;50.200;19.038;2023-07-13T03:42:18;15.98;;;8.10;;
19189;SDS011;9727;50.200;19.038;2023-07-13T03:44:45;16.55;;;8.15;;
19189;SDS011;9727;50.200;19.038;2023-07-13T03:47:20;17.42;;;7.97;;
19189;SDS011;9727;50.200;19.038;2023-07-13T03:49:47;21.27;;;8.52;;
19189;SDS011;9727;50.200;19.038;2023-07-13T03:52:19;12.40;;;8.15;;
19189;SDS011;9727;50.200;19.038;2023-07-13T03:54:46;15.82;;;8.57;;
19189;SDS011;9727;50.200;19.038;2023-07-13T03:57:18;19.42;;;8.90;;
19189;SDS011;9727;50.200;19.038;2023-07-13T03:59:44;17.20;;;8.48;;
19189;SDS011;9727;50.200;19.038;2023-07-13T04:02:11;17.48;;;8.07;;
19189;SDS011;9727;50.200;19.038;2023-07-13T04:04:38;14.50;;;7.57;;
19189;SDS011;9727;50.200;19.038;2023-07-13T04:07:05;15.48;;;8.15;;
19189;SDS011;9727;50.200;19.038;2023-07-13T04:09:33;19.40;;;9.55;;
19189;SDS011;9727;50.200;19.038;2023-07-13T04:12:00;12.93;;;8.13;;
19189;SDS011;9727;50.200;19.038;2023-07-13T04:14:28;15.52;;;8.00;;
19189;SDS011;9727;50.200;19.038;2023-07-13T04:16:54;11.90;;;6.85;;
19189;SDS011;9727;50.200;19.038;2023-07-13T04:19:21;16.60;;;8.07;;
19189;SDS011;9727;50.200;19.038;2023-07-13T04:21:48;13.18;;;7.88;;
19189;SDS011;9727;50.200;19.038;2023-07-13T04:24:17;17.55;;;8.20;;
19189;SDS011;9727;50.200;19.038;2023-07-13T04:26:44;16.48;;;9.10;;
19189;SDS011;9727;50.200;19.038;2023-07-13T04:29:10;21.45;;;9.35;;
19189;SDS011;9727;50.200;19.038;2023-07-13T04:31:39;18.08;;;9.32;;
19189;SDS011;9727;50.200;19.038;2023-07-13T04:34:06;16.65;;;9.15;;
19189;SDS011;9727;50.200;19.038;2023-07-13T04:36:32;17.67;;;9.68;;
19189;SDS011;9727;50.200;19.038;2023-07-13T04:39:02;14.57;;;9.00;;
19189;SDS011;9727;50.200;19.038;2023-07-13T04:41:29;16.00;;;8.75;;
19189;SDS011;9727;50.200;19.038;2023-07-13T04:43:56;24.52;;;9.60;;
19189;SDS011;9727;50.200;19.038;2023-07-13T04:46:22;21.52;;;8.98;;
19189;SDS011;9727;50.200;19.038;2023-07-13T04:48:53;16.63;;;9.27;;
19189;SDS011;9727;50.200;19.038;2023-07-13T04:51:20;15.40;;;9.00;;
19189;SDS011;9727;50.200;19.038;2023-07-13T04:53:47;16.63;;;8.48;;
19189;SDS011;9727;50.200;19.038;2023-07-13T04:56:17;16.33;;;8.75;;
19189;SDS011;9727;50.200;19.038;2023-07-13T04:58:45;19.20;;;9.23;;
19189;SDS011;9727;50.200;19.038;2023-07-13T05:01:11;17.05;;;8.50;;
19189;SDS011;9727;50.200;19.038;2023-07-13T05:03:45;19.60;;;8.52;;
19189;SDS011;9727;50.200;19.038;2023-07-13T05:06:20;19.40;;;9.00;;
19189;SDS011;9727;50.200;19.038;2023-07-13T05:08:47;21.40;;;8.88;;
19189;SDS011;9727;50.200;19.038;2023-07-13T05:11:19;18.70;;;9.23;;
19189;SDS011;9727;50.200;19.038;2023-07-13T05:13:46;11.40;;;7.72;;
19189;SDS011;9727;50.200;19.038;2023-07-13T05:16:16;12.73;;;7.57;;
19189;SDS011;9727;50.200;19.038;2023-07-13T05:18:44;12.88;;;8.15;;
19189;SDS011;9727;50.200;19.038;2023-07-13T05:21:10;18.90;;;9.20;;
19189;SDS011;9727;50.200;19.038;2023-07-13T05:23:39;11.38;;;7.65;;
19189;SDS011;9727;50.200;19.038;2023-07-13T05:26:06;18.73;;;10.20;;
19189;SDS011;9727;50.200;19.038;2023-07-13T05:28:33;14.38;;;9.02;;
19189;SDS011;9727;50.200;19.038;2023-07-13T05:31:00;15.43;;;8.18;;
19189;SDS011;9727;50.200;19.038;2023-07-13T05:33:27;15.48;;;9.00;;
19189;SDS011;9727;50.200;19.038;2023-07-13T05:35:53;16.77;;;9.43;;
19189;SDS011;9727;50.200;19.038;2023-07-13T05:38:28;16.13;;;8.77;;
19189;SDS011;9727;50.200;19.038;2023-07-13T05:40:57;12.85;;;8.65;;
19189;SDS011;9727;50.200;19.038;2023-07-13T05:43:32;19.10;;;8.40;;
19189;SDS011;9727;50.200;19.038;2023-07-13T05:46:02;19.63;;;9.63;;
19189;SDS011;9727;50.200;19.038;2023-07-13T05:48:29;14.63;;;8.73;;
19189;SDS011;9727;50.200;19.038;2023-07-13T05:51:01;18.42;;;8.65;;
19189;SDS011;9727;50.200;19.038;2023-07-13T05:53:28;21.45;;;9.27;;
19189;SDS011;9727;50.200;19.038;2023-07-13T05:55:59;22.88;;;10.85;;
19189;SDS011;9727;50.200;19.038;2023-07-13T05:58:28;22.60;;;9.80;;
19189;SDS011;9727;50.200;19.038;2023-07-13T06:00:58;15.75;;;8.10;;
19189;SDS011;9727;50.200;19.038;2023-07-13T06:03:26;12.63;;;8.00;;
19189;SDS011;9727;50.200;19.038;2023-07-13T06:05:56;9.95;;;6.50;;
19189;SDS011;9727;50.200;19.038;2023-07-13T06:08:27;10.40;;;7.03;;
19189;SDS011;9727;50.200;19.038;2023-07-13T06:11:03;13.85;;;7.50;;
19189;SDS011;9727;50.200;19.038;2023-07-13T06:13:30;11.15;;;8.50;;
19189;SDS011;9727;50.200;19.038;2023-07-13T06:15:57;15.40;;;7.55;;
19189;SDS011;9727;50.200;19.038;2023-07-13T06:18:23;12.90;;;8.32;;
19189;SDS011;9727;50.200;19.038;2023-07-13T06:20:50;16.83;;;9.32;;
19189;SDS011;9727;50.200;19.038;2023-07-13T06:23:17;12.88;;;9.25;;
19189;SDS011;9727;50.200;19.038;2023-07-13T06:25:43;16.70;;;9.93;;
19189;SDS011;9727;50.200;19.038;2023-07-13T06:28:11;15.43;;;9.45;;
19189;SDS011;9727;50.200;19.038;2023-07-13T06:30:38;11.98;;;8.63;;
19189;SDS011;9727;50.200;19.038;2023-07-13T06:33:05;12.25;;;9.02;;
19189;SDS011;9727;50.200;19.038;2023-07-13T06:35:32;10.45;;;8.07;;
19189;SDS011;9727;50.200;19.038;2023-07-13T06:37:58;10.30;;;8.75;;
19189;SDS011;9727;50.200;19.038;2023-07-13T06:40:28;12.05;;;8.30;;
19189;SDS011;9727;50.200;19.038;2023-07-13T06:42:57;10.77;;;9.18;;
19189;SDS011;9727;50.200;19.038;2023-07-13T06:45:30;12.38;;;8.75;;
19189;SDS011;9727;50.200;19.038;2023-07-13T06:48:00;13.32;;;9.35;;
19189;SDS011;9727;50.200;19.038;2023-07-13T06:50:26;11.95;;;8.70;;
19189;SDS011;9727;50.200;19.038;2023-07-13T06:52:53;12.82;;;8.35;;
19189;SDS011;9727;50.200;19.038;2023-07-13T06:55:20;12.27;;;8.98;;
19189;SDS011;9727;50.200;19.038;2023-07-13T06:57:47;10.32;;;7.95;;
19189;SDS011;9727;50.200;19.038;2023-07-13T07:00:20;12.52;;;7.07;;
19189;SDS011;9727;50.200;19.038;2023-07-13T07:02:48;8.98;;;7.03;;
19189;SDS011;9727;50.200;19.038;2023-07-13T07:05:18;8.48;;;7.35;;
19189;SDS011;9727;50.200;19.038;2023-07-13T07:07:47;9.38;;;7.50;;
19189;SDS011;9727;50.200;19.038;2023-07-13T07:10:17;8.35;;;6.70;;
19189;SDS011;9727;50.200;19.038;2023-07-13T07:12:44;9.80;;;7.35;;
19189;SDS011;9727;50.200;19.038;2023-07-13T07:15:11;9.98;;;7.65;;
19189;SDS011;9727;50.200;19.038;2023-07-13T07:17:41;11.52;;;7.10;;
19189;SDS011;9727;50.200;19.038;2023-07-13T07:20:10;9.77;;;8.23;;
19189;SDS011;9727;50.200;19.038;2023-07-13T07:22:37;11.10;;;8.02;;
19189;SDS011;9727;50.200;19.038;2023-07-13T07:25:04;10.93;;;7.75;;
19189;SDS011;9727;50.200;19.038;2023-07-13T07:27:31;14.10;;;7.85;;
19189;SDS011;9727;50.200;19.038;2023-07-13T07:29:58;9.70;;;7.40;;
19189;SDS011;9727;50.200;19.038;2023-07-13T07:32:28;10.52;;;7.07;;
19189;SDS011;9727;50.200;19.038;2023-07-13T07:34:55;12.05;;;8.25;;
19189;SDS011;9727;50.200;19.038;2023-07-13T07:37:23;11.13;;;7.47;;
19189;SDS011;9727;50.200;19.038;2023-07-13T07:39:50;10.32;;;6.85;;
19189;SDS011;9727;50.200;19.038;2023-07-13T07:42:16;9.95;;;6.88;;
19189;SDS011;9727;50.200;19.038;2023-07-13T07:44:43;12.95;;;7.70;;
19189;SDS011;9727;50.200;19.038;2023-07-13T07:47:26;9.00;;;7.38;;
19189;SDS011;9727;50.200;19.038;2023-07-13T07:49:53;11.48;;;7.68;;
19189;SDS011;9727;50.200;19.038;2023-07-13T07:52:20;9.73;;;7.18;;
19189;SDS011;9727;50.200;19.038;2023-07-13T07:54:51;11.57;;;7.68;;
19189;SDS011;9727;50.200;19.038;2023-07-13T07:57:20;8.80;;;7.32;;
19189;SDS011;9727;50.200;19.038;2023-07-13T07:59:47;9.05;;;7.40;;
19189;SDS011;9727;50.200;19.038;2023-07-13T08:02:19;9.38;;;7.43;;
19189;SDS011;9727;50.200;19.038;2023-07-13T08:04:45;10.13;;;8.27;;
19189;SDS011;9727;50.200;19.038;2023-07-13T08:07:12;10.07;;;9.00;;
19189;SDS011;9727;50.200;19.038;2023-07-13T08:09:48;12.65;;;8.52;;
19189;SDS011;9727;50.200;19.038;2023-07-13T08:12:21;9.63;;;7.60;;
19189;SDS011;9727;50.200;19.038;2023-07-13T08:14:49;11.02;;;8.15;;
19189;SDS011;9727;50.200;19.038;2023-07-13T08:17:21;13.05;;;10.20;;
19189;SDS011;9727;50.200;19.038;2023-07-13T08:19:48;12.57;;;8.88;;
19189;SDS011;9727;50.200;19.038;2023-07-13T08:22:20;9.52;;;7.90;;
19189;SDS011;9727;50.200;19.038;2023-07-13T08:24:47;12.35;;;7.03;;
19189;SDS011;9727;50.200;19.038;2023-07-13T08:27:22;8.77;;;7.00;;
19189;SDS011;9727;50.200;19.038;2023-07-13T08:29:49;7.85;;;7.00;;
19189;SDS011;9727;50.200;19.038;2023-07-13T08:32:25;8.75;;;7.85;;
19189;SDS011;9727;50.200;19.038;2023-07-13T08:34:52;8.70;;;6.63;;
19189;SDS011;9727;50.200;19.038;2023-07-13T08:37:19;7.25;;;6.38;;
19189;SDS011;9727;50.200;19.038;2023-07-13T08:39:46;9.07;;;7.10;;
19189;SDS011;9727;50.200;19.038;2023-07-13T08:42:22;7.50;;;6.78;;
19189;SDS011;9727;50.200;19.038;2023-07-13T08:45:19;7.05;;;6.05;;
19189;SDS011;9727;50.200;19.038;2023-07-13T08:47:49;8.13;;;6.32;;
19189;SDS011;9727;50.200;19.038;2023-07-13T08:50:19;8.32;;;6.80;;
19189;SDS011;9727;50.200;19.038;2023-07-13T08:52:49;6.63;;;5.90;;
19189;SDS011;9727;50.200;19.038;2023-07-13T08:55:20;6.63;;;5.97;;
19189;SDS011;9727;50.200;19.038;2023-07-13T08:57:48;7.28;;;6.15;;
19189;SDS011;9727;50.200;19.038;2023-07-13T09:00:31;8.63;;;7.00;;
19189;SDS011;9727;50.200;19.038;2023-07-13T09:02:59;6.60;;;5.90;;
19189;SDS011;9727;50.200;19.038;2023-07-13T09:05:28;7.55;;;5.57;;
19189;SDS011;9727;50.200;19.038;2023-07-13T09:08:07;6.68;;;5.45;;
19189;SDS011;9727;50.200;19.038;2023-07-13T09:10:37;7.63;;;5.22;;
19189;SDS011;9727;50.200;19.038;2023-07-13T09:13:14;7.22;;;5.05;;
19189;SDS011;9727;50.200;19.038;2023-07-13T09:15:46;7.15;;;5.03;;
19189;SDS011;9727;50.200;19.038;2023-07-13T09:18:19;5.38;;;4.80;;
19189;SDS011;9727;50.200;19.038;2023-07-13T09:20:51;7.78;;;4.72;;
19189;SDS011;9727;50.200;19.038;2023-07-13T09:23:22;7.13;;;5.20;;
19189;SDS011;9727;50.200;19.038;2023-07-13T09:25:50;5.75;;;4.47;;
19189;SDS011;9727;50.200;19.038;2023-07-13T09:28:23;8.82;;;5.28;;
19189;SDS011;9727;50.200;19.038;2023-07-13T09:30:56;6.85;;;4.57;;
19189;SDS011;9727;50.200;19.038;2023-07-13T09:33:23;9.32;;;4.72;;
19189;SDS011;9727;50.200;19.038;2023-07-13T09:35:50;5.63;;;4.93;;
19189;SDS011;9727;50.200;19.038;2023-07-13T09:38:18;5.53;;;4.45;;
19189;SDS011;9727;50.200;19.038;2023-07-13T09:41:04;5.78;;;4.30;;
19189;SDS011;9727;50.200;19.038;2023-07-13T09:43:37;13.32;;;4.55;;
19189;SDS011;9727;50.200;19.038;2023-07-13T09:46:07;6.35;;;4.82;;
19189;SDS011;9727;50.200;19.038;2023-07-13T09:48:48;6.18;;;4.32;;
19189;SDS011;9727;50.200;19.038;2023-07-13T09:51:18;8.25;;;6.20;;
19189;SDS011;9727;50.200;19.038;2023-07-13T09:53:45;12.52;;;7.50;;
19189;SDS011;9727;50.200;19.038;2023-07-13T09:56:21;10.98;;;8.18;;
19189;SDS011;9727;50.200;19.038;2023-07-13T09:58:54;13.75;;;8.70;;
19189;SDS011;9727;50.200;19.038;2023-07-13T10:01:32;9.63;;;8.07;;
19189;SDS011;9727;50.200;19.038;2023-07-13T10:03:59;10.25;;;8.23;;
19189;SDS011;9727;50.200;19.038;2023-07-13T10:06:28;10.95;;;8.10;;
19189;SDS011;9727;50.200;19.038;2023-07-13T10:08:57;7.20;;;5.90;;
19189;SDS011;9727;50.200;19.038;2023-07-13T10:11:25;9.95;;;6.68;;
19189;SDS011;9727;50.200;19.038;2023-07-13T10:13:55;10.13;;;5.30;;
19189;SDS011;9727;50.200;19.038;2023-07-13T10:16:25;14.15;;;4.57;;
19189;SDS011;9727;50.200;19.038;2023-07-13T10:18:56;9.65;;;5.28;;
19189;SDS011;9727;50.200;19.038;2023-07-13T10:21:30;9.90;;;4.63;;
19189;SDS011;9727;50.200;19.038;2023-07-13T10:24:03;4.85;;;3.83;;
19189;SDS011;9727;50.200;19.038;2023-07-13T10:26:32;6.43;;;3.97;;
19189;SDS011;9727;50.200;19.038;2023-07-13T10:29:01;4.05;;;3.47;;
19189;SDS011;9727;50.200;19.038;2023-07-13T10:31:29;5.88;;;4.00;;
19189;SDS011;9727;50.200;19.038;2023-07-13T10:33:58;8.32;;;3.88;;
19189;SDS011;9727;50.200;19.038;2023-07-13T10:36:29;5.93;;;4.15;;
19189;SDS011;9727;50.200;19.038;2023-07-13T10:38:57;5.63;;;3.23;;
19189;SDS011;9727;50.200;19.038;2023-07-13T10:41:26;4.83;;;3.00;;
19189;SDS011;9727;50.200;19.038;2023-07-13T10:43:54;5.57;;;4.07;;
19189;SDS011;9727;50.200;19.038;2023-07-13T10:46:25;3.90;;;3.00;;
19189;SDS011;9727;50.200;19.038;2023-07-13T10:49:05;4.43;;;3.10;;
19189;SDS011;9727;50.200;19.038;2023-07-13T10:51:33;3.47;;;3.10;;
19189;SDS011;9727;50.200;19.038;2023-07-13T10:54:17;3.73;;;2.80;;
19189;SDS011;9727;50.200;19.038;2023-07-13T10:56:48;6.87;;;4.07;;
19189;SDS011;9727;50.200;19.038;2023-07-13T10:59:18;12.30;;;5.33;;
19189;SDS011;9727;50.200;19.038;2023-07-13T11:01:55;6.23;;;4.07;;
19189;SDS011;9727;50.200;19.038;2023-07-13T11:04:23;8.37;;;3.20;;
19189;SDS011;9727;50.200;19.038;2023-07-13T11:06:56;4.70;;;2.80;;
19189;SDS011;9727;50.200;19.038;2023-07-13T11:09:32;5.03;;;3.20;;
19189;SDS011;9727;50.200;19.038;2023-07-13T11:12:03;4.50;;;3.10;;
19189;SDS011;9727;50.200;19.038;2023-07-13T11:14:34;3.97;;;3.07;;
19189;SDS011;9727;50.200;19.038;2023-07-13T11:19:51;4.97;;;3.50;;
19189;SDS011;9727;50.200;19.038;2023-07-13T11:22:24;7.00;;;3.73;;
19189;SDS011;9727;50.200;19.038;2023-07-13T11:25:06;4.90;;;3.40;;
19189;SDS011;9727;50.200;19.038;2023-07-13T11:27:50;4.23;;;3.50;;
19189;SDS011;9727;50.200;19.038;2023-07-13T11:30:34;5.37;;;3.40;;
19189;SDS011;9727;50.200;19.038;2023-07-13T11:33:09;5.33;;;3.53;;
19189;SDS011;9727;50.200;19.038;2023-07-13T11:35:40;6.38;;;3.40;;
19189;SDS011;9727;50.200;19.038;2023-07-13T11:38:13;9.65;;;3.78;;
19189;SDS011;9727;50.200;19.038;2023-07-13T11:40:44;9.02;;;3.50;;
19189;SDS011;9727;50.200;19.038;2023-07-13T11:43:12;9.37;;;3.80;;
19189;SDS011;9727;50.200;19.038;2023-07-13T11:45:49;6.03;;;3.80;;
19189;SDS011;9727;50.200;19.038;2023-07-13T11:48:19;4.75;;;3.67;;
19189;SDS011;9727;50.200;19.038;2023-07-13T11:50:53;5.85;;;3.50;;
19189;SDS011;9727;50.200;19.038;2023-07-13T11:53:20;5.05;;;3.15;;
19189;SDS011;9727;50.200;19.038;2023-07-13T11:55:53;4.65;;;3.42;;
19189;SDS011;9727;50.200;19.038;2023-07-13T11:58:22;4.93;;;3.08;;
19189;SDS011;9727;50.200;19.038;2023-07-13T12:00:50;5.93;;;2.83;;
19189;SDS011;9727;50.200;19.038;2023-07-13T12:03:23;4.10;;;3.30;;
19189;SDS011;9727;50.200;19.038;2023-07-13T12:06:03;5.03;;;3.13;;
19189;SDS011;9727;50.200;19.038;2023-07-13T12:08:31;3.60;;;3.00;;
19189;SDS011;9727;50.200;19.038;2023-07-13T12:11:05;4.68;;;2.65;;
19189;SDS011;9727;50.200;19.038;2023-07-13T12:13:37;4.15;;;3.15;;
19189;SDS011;9727;50.200;19.038;2023-07-13T12:16:10;5.18;;;3.22;;
19189;SDS011;9727;50.200;19.038;2023-07-13T12:18:37;5.32;;;2.83;;
19189;SDS011;9727;50.200;19.038;2023-07-13T12:21:10;3.97;;;2.67;;
19189;SDS011;9727;50.200;19.038;2023-07-13T12:23:47;3.05;;;2.65;;
19189;SDS011;9727;50.200;19.038;2023-07-13T12:26:17;4.15;;;3.05;;
19189;SDS011;9727;50.200;19.038;2023-07-13T12:28:45;4.05;;;2.50;;
19189;SDS011;9727;50.200;19.038;2023-07-13T12:31:30;3.25;;;2.53;;
19189;SDS011;9727;50.200;19.038;2023-07-13T12:33:58;4.15;;;3.38;;
19189;SDS011;9727;50.200;19.038;2023-07-13T12:36:27;4.88;;;2.80;;
19189;SDS011;9727;50.200;19.038;2023-07-13T12:38:57;5.20;;;2.90;;
19189;SDS011;9727;50.200;19.038;2023-07-13T12:41:25;5.40;;;2.53;;
19189;SDS011;9727;50.200;19.038;2023-07-13T12:43:52;4.95;;;2.42;;
19189;SDS011;9727;50.200;19.038;2023-07-13T12:46:19;2.47;;;2.28;;
19189;SDS011;9727;50.200;19.038;2023-07-13T12:48:48;4.97;;;2.55;;
19189;SDS011;9727;50.200;19.038;2023-07-13T12:51:20;4.60;;;2.53;;
19189;SDS011;9727;50.200;19.038;2023-07-13T12:53:57;5.50;;;2.83;;
19189;SDS011;9727;50.200;19.038;2023-07-13T12:56:26;5.20;;;2.90;;
19189;SDS011;9727;50.200;19.038;2023-07-13T12:58:56;3.28;;;2.47;;
19189;SDS011;9727;50.200;19.038;2023-07-13T13:01:25;2.45;;;2.25;;
19189;SDS011;9727;50.200;19.038;2023-07-13T13:04:00;3.95;;;2.30;;
19189;SDS011;9727;50.200;19.038;2023-07-13T13:06:29;2.70;;;2.50;;
19189;SDS011;9727;50.200;19.038;2023-07-13T13:08:58;3.78;;;2.63;;
19189;SDS011;9727;50.200;19.038;2023-07-13T13:11:28;3.15;;;2.53;;
19189;SDS011;9727;50.200;19.038;2023-07-13T13:13:55;6.15;;;2.90;;
19189;SDS011;9727;50.200;19.038;2023-07-13T13:16:23;5.78;;;3.08;;
19189;SDS011;9727;50.200;19.038;2023-07-13T13:18:51;3.65;;;3.00;;
19189;SDS011;9727;50.200;19.038;2023-07-13T13:21:19;6.50;;;3.30;;
19189;SDS011;9727;50.200;19.038;2023-07-13T13:23:46;4.90;;;3.80;;
19189;SDS011;9727;50.200;19.038;2023-07-13T13:26:19;5.13;;;3.22;;
19189;SDS011;9727;50.200;19.038;2023-07-13T13:28:46;5.35;;;2.70;;
19189;SDS011;9727;50.200;19.038;2023-07-13T13:31:18;4.78;;;2.40;;
19189;SDS011;9727;50.200;19.038;2023-07-13T13:33:45;3.78;;;2.75;;
19189;SDS011;9727;50.200;19.038;2023-07-13T13:36:20;3.53;;;2.72;;
19189;SDS011;9727;50.200;19.038;2023-07-13T13:38:49;7.10;;;2.90;;
19189;SDS011;9727;50.200;19.038;2023-07-13T13:41:20;3.33;;;2.47;;
19189;SDS011;9727;50.200;19.038;2023-07-13T13:43:47;3.83;;;2.97;;
19189;SDS011;9727;50.200;19.038;2023-07-13T13:46:18;4.55;;;3.30;;
19189;SDS011;9727;50.200;19.038;2023-07-13T13:48:46;5.70;;;3.33;;
19189;SDS011;9727;50.200;19.038;2023-07-13T13:51:16;7.93;;;3.97;;
19189;SDS011;9727;50.200;19.038;2023-07-13T13:53:44;4.60;;;3.90;;
19189;SDS011;9727;50.200;19.038;2023-07-13T13:56:11;5.07;;;4.53;;
19189;SDS011;9727;50.200;19.038;2023-07-13T13:58:39;6.63;;;4.30;;
19189;SDS011;9727;50.200;19.038;2023-07-13T14:01:10;4.93;;;4.40;;
19189;SDS011;9727;50.200;19.038;2023-07-13T14:03:46;6.32;;;4.25;;
19189;SDS011;9727;50.200;19.038;2023-07-13T14:06:19;4.93;;;3.47;;
19189;SDS011;9727;50.200;19.038;2023-07-13T14:08:46;4.00;;;3.60;;
19189;SDS011;9727;50.200;19.038;2023-07-13T14:11:22;4.82;;;3.17;;
19189;SDS011;9727;50.200;19.038;2023-07-13T14:13:56;4.88;;;3.42;;
19189;SDS011;9727;50.200;19.038;2023-07-13T14:16:25;4.15;;;3.28;;
19189;SDS011;9727;50.200;19.038;2023-07-13T14:18:53;3.78;;;3.45;;
19189;SDS011;9727;50.200;19.038;2023-07-13T14:21:21;5.32;;;3.38;;
19189;SDS011;9727;50.200;19.038;2023-07-13T14:23:51;4.10;;;2.50;;
19189;SDS011;9727;50.200;19.038;2023-07-13T14:26:21;3.15;;;2.10;;
19189;SDS011;9727;50.200;19.038;2023-07-13T14:28:49;2.63;;;2.40;;
19189;SDS011;9727;50.200;19.038;2023-07-13T14:31:21;4.97;;;2.40;;
19189;SDS011;9727;50.200;19.038;2023-07-13T14:33:48;3.97;;;2.38;;
19189;SDS011;9727;50.200;19.038;2023-07-13T14:36:24;4.85;;;2.28;;
19189;SDS011;9727;50.200;19.038;2023-07-13T14:38:51;2.97;;;2.35;;
19189;SDS011;9727;50.200;19.038;2023-07-13T14:41:19;4.07;;;1.88;;
19189;SDS011;9727;50.200;19.038;2023-07-13T14:43:46;2.88;;;2.20;;
19189;SDS011;9727;50.200;19.038;2023-07-13T14:46:21;3.08;;;2.20;;
19189;SDS011;9727;50.200;19.038;2023-07-13T14:48:51;2.90;;;2.20;;
19189;SDS011;9727;50.200;19.038;2023-07-13T14:51:21;3.05;;;2.28;;
19189;SDS011;9727;50.200;19.038;2023-07-13T14:53:47;3.33;;;2.10;;
19189;SDS011;9727;50.200;19.038;2023-07-13T14:56:18;2.58;;;2.30;;
19189;SDS011;9727;50.200;19.038;2023-07-13T14:58:45;3.42;;;2.10;;
19189;SDS011;9727;50.200;19.038;2023-07-13T15:01:12;4.15;;;2.28;;